Time;durP1;ratioP1;P1;durP2;ratioP2;P2;SDS_P1;SDS_P2;PMS_P1;PMS_P2;Temp;Humidity;BMP_temperature;BMP_pressure;BME280_temperature;BME280_humidity;BME280_pressure;Samples;Min_cycle;Max_cycle;Signal;HPM_P1;HPM_P2
2024/03/13 00:02:20;;;;;;;;;;;;;;;10.47;99.93;98183.38;5014826;28;20382;-79
2024/03/13 00:04:45;;;;;;;;;;;;;;;10.50;100.00;98178.91;5031110;28;20445;-80
2024/03/13 00:07:11;;;;;;;;;;;;;;;10.48;100.00;98184.16;5031574;28;20015;-80
2024/03/13 00:09:45;;;;;;;;;;;;;;;10.48;99.58;98173.09;5014260;28;19971;-79
2024/03/13 00:12:11;;;;;;;;;;;;;;;10.44;100.00;98169.66;5032683;28;19925;-79
2024/03/13 00:14:37;;;;;;;;;;;;;;;10.54;100.00;98168.53;5014516;28;19918;-80
2024/03/13 00:17:03;;;;;;;;;;;;;;;10.52;99.63;98173.72;5030954;28;19917;-79
2024/03/13 00:19:29;;;;;;;;;;;;;;;10.48;99.93;98168.34;5030691;28;20457;-80
2024/03/13 00:21:55;;;;;;;;;;;;;;;10.44;100.00;98169.66;5030971;28;19924;-79
2024/03/13 00:24:20;;;;;;;;;;;;;;;10.50;98.86;98165.09;5030621;28;19920;-79
2024/03/13 00:26:50;;;;;;;;;;;;;;;10.54;99.06;98174.84;5030762;28;20314;-79
2024/03/13 00:29:15;;;;;;;;;;;;;;;10.52;99.46;98168.97;5030490;28;19917;-80
2024/03/13 00:31:40;;;;;;;;;;;;;;;10.47;100.00;98168.78;5003695;28;19941;-79
2024/03/13 00:34:07;;;;;;;;;;;;;;;10.42;99.95;98175.66;5042533;28;20295;-79
2024/03/13 00:36:32;;;;;;;;;;;;;;;10.48;100.00;98167.56;5030788;28;19924;-80
2024/03/13 00:38:58;;;;;;;;;;;;;;;10.44;100.00;98172.44;5030129;28;19920;-80
2024/03/13 00:41:24;;;;;;;;;;;;;;;10.45;100.00;98169.22;5014091;28;19917;-79
2024/03/13 00:43:49;;;;;;;;;;;;;;;10.48;100.00;98167.56;5030386;28;19923;-79
2024/03/13 00:46:14;;;;;;;;;;;;;;;10.43;100.00;98171.66;5014107;28;19939;-80
2024/03/13 00:48:40;;;;;;;;;;;;;;;10.50;99.71;98173.41;5029829;28;20016;-79
2024/03/13 00:51:05;;;;;;;;;;;;;;;10.55;99.17;98159.78;5031708;28;20346;-79
2024/03/13 00:53:30;;;;;;;;;;;;;;;10.58;99.94;98163.66;5031508;28;20480;-80
2024/03/13 00:55:58;;;;;;;;;;;;;;;10.54;99.92;98171.28;5031714;28;19921;-79
2024/03/13 00:58:23;;;;;;;;;;;;;;;10.45;100.00;98157.41;5030337;28;19963;-80
2024/03/13 01:00:49;;;;;;;;;;;;;;;10.47;100.00;98166.78;5030189;28;19961;-80
2024/03/13 01:03:14;;;;;;;;;;;;;;;10.45;100.00;98160.94;5013776;28;20729;-79
2024/03/13 01:05:40;;;;;;;;;;;;;;;10.45;100.00;98158.19;5031668;28;19936;-79
2024/03/13 01:08:06;;;;;;;;;;;;;;;10.46;99.85;98159.72;5030230;28;20403;-80
2024/03/13 01:10:31;;;;;;;;;;;;;;;10.41;100.00;98154.78;5030190;28;20015;-79
2024/03/13 01:12:56;;;;;;;;;;;;;;;10.40;100.00;98163.50;5031221;28;20066;-79
2024/03/13 01:15:21;;;;;;;;;;;;;;;10.46;100.00;98159.72;5030164;28;20008;-80
2024/03/13 01:17:47;;;;;;;;;;;;;;;10.46;100.00;98158.94;5030165;28;19999;-79
2024/03/13 01:20:18;;;;;;;;;;;;;;;10.40;100.00;98153.22;5031442;28;20414;-80
2024/03/13 01:22:45;;;;;;;;;;;;;;;10.40;100.00;98150.47;5033978;28;19917;-79
2024/03/13 01:25:10;;;;;;;;;;;;;;;10.32;100.00;98146.41;5022618;28;19921;-81
2024/03/13 01:27:41;;;;;;;;;;;;;;;10.31;100.00;98147.63;5013724;28;20314;-79
2024/03/13 01:30:08;;;;;;;;;;;;;;;10.28;100.00;98136.72;5031351;28;19928;-79
2024/03/13 01:32:33;;;;;;;;;;;;;;;10.22;100.00;98139.28;5030168;28;19921;-80
2024/03/13 01:34:58;;;;;;;;;;;;;;;10.31;100.00;98144.13;5031162;28;20383;-80
2024/03/13 01:40:09;;;;;;;;;;;;;;;10.22;100.00;98133.75;5031419;28;19924;-80
2024/03/13 01:56:37;;;;;;;;;;;;;;;10.21;99.80;98134.97;5035217;28;19955;-78
2024/03/13 01:59:03;;;;;;;;;;;;;;;10.17;98.85;98137.09;5029973;28;19913;-80
2024/03/13 02:04:16;;;;;;;;;;;;;;;10.14;98.18;98135.19;5037571;28;19943;-78
2024/03/13 02:06:42;;;;;;;;;;;;;;;10.18;97.62;98144.94;5033605;28;19975;-79
2024/03/13 02:09:08;;;;;;;;;;;;;;;10.20;98.88;98141.72;5034393;28;19925;-78
2024/03/13 02:11:33;;;;;;;;;;;;;;;10.13;99.28;98145.44;5033230;28;19923;-77
2024/03/13 02:14:04;;;;;;;;;;;;;;;10.05;97.92;98140.63;5033213;28;20283;-80
2024/03/13 02:16:29;;;;;;;;;;;;;;;10.10;98.11;98143.59;5034701;28;20395;-78
2024/03/13 02:18:58;;;;;;;;;;;;;;;10.12;99.81;98137.63;5016618;28;19921;-80
2024/03/13 02:21:23;;;;;;;;;;;;;;;10.01;99.12;98139.97;5033252;28;20314;-78
2024/03/13 02:23:49;;;;;;;;;;;;;;;10.04;98.91;98139.88;5033284;28;19921;-79
2024/03/13 02:26:14;;;;;;;;;;;;;;;10.03;98.53;98137.53;5046086;28;19964;-78
2024/03/13 02:28:39;;;;;;;;;;;;;;;10.01;97.07;98132.47;5035170;28;19920;-78
2024/03/13 02:31:07;;;;;;;;;;;;;;;10.11;96.47;98127.81;5030362;28;19917;-78
2024/03/13 02:33:33;;;;;;;;;;;;;;;10.12;95.10;98134.88;5033075;28;20311;-78
2024/03/13 02:35:59;;;;;;;;;;;;;;;10.11;96.08;98138.84;5046398;28;19931;-78
2024/03/13 02:38:24;;;;;;;;;;;;;;;10.09;97.20;98135.75;5029424;28;20035;-79
2024/03/13 02:40:50;;;;;;;;;;;;;;;10.06;97.18;98142.97;5016412;28;19982;-77
2024/03/13 02:43:15;;;;;;;;;;;;;;;10.09;96.42;98144.03;5032898;28;19932;-77
2024/03/13 02:45:42;;;;;;;;;;;;;;;10.05;97.87;98140.63;5032544;28;19917;-78
2024/03/13 02:48:07;;;;;;;;;;;;;;;10.07;96.87;98140.94;5034021;28;19913;-78
2024/03/13 02:50:33;;;;;;;;;;;;;;;10.05;97.43;98135.13;5033877;28;19913;-78
2024/03/13 02:52:58;;;;;;;;;;;;;;;10.02;97.95;98136.00;5032506;28;20047;-77
2024/03/13 02:55:23;;;;;;;;;;;;;;;10.01;97.64;98137.22;5032291;28;19925;-78
2024/03/13 02:57:49;;;;;;;;;;;;;;;9.97;97.20;98133.81;5033389;28;20395;-79
2024/03/13 03:00:15;;;;;;;;;;;;;;;9.99;96.87;98132.16;5033411;28;19916;-78
2024/03/13 03:02:40;;;;;;;;;;;;;;;9.99;97.06;98134.16;5033405;28;19967;-79
2024/03/13 03:05:06;;;;;;;;;;;;;;;9.97;97.14;98137.34;5031988;28;20369;-78
2024/03/13 03:07:32;;;;;;;;;;;;;;;9.99;97.67;98131.38;5031576;28;19925;-78
2024/03/13 03:09:57;;;;;;;;;;;;;;;9.98;97.95;98140.88;5031761;28;20008;-79
2024/03/13 03:12:23;;;;;;;;;;;;;;;9.98;97.60;98146.41;5031679;28;19953;-77
2024/03/13 03:14:48;;;;;;;;;;;;;;;9.90;97.99;98145.09;5037142;28;19920;-79
2024/03/13 03:17:14;;;;;;;;;;;;;;;9.94;97.76;98143.75;5041126;28;20391;-79
2024/03/13 03:19:40;;;;;;;;;;;;;;;9.87;98.73;98146.75;5020565;28;19916;-78
2024/03/13 03:22:05;;;;;;;;;;;;;;;9.87;99.09;98148.75;5022540;28;19924;-78
2024/03/13 03:24:31;;;;;;;;;;;;;;;9.86;99.64;98142.44;5032754;28;19921;-79
2024/03/13 03:26:59;;;;;;;;;;;;;;;9.79;99.57;98143.47;5015097;28;19974;-78
2024/03/13 03:29:28;;;;;;;;;;;;;;;9.76;100.00;98138.06;5031200;28;19921;-79
2024/03/13 03:31:54;;;;;;;;;;;;;;;9.73;99.35;98131.44;5031852;28;19928;-78
2024/03/13 03:34:19;;;;;;;;;;;;;;;9.73;99.31;98139.72;5031428;28;20398;-79
2024/03/13 03:36:44;;;;;;;;;;;;;;;9.75;99.13;98145.56;5031578;28;19924;-79
2024/03/13 03:39:15;;;;;;;;;;;;;;;9.75;99.81;98142.81;5032342;28;19967;-79
2024/03/13 03:41:41;;;;;;;;;;;;;;;9.82;100.00;98148.06;5032516;28;20004;-78
2024/03/13 03:44:07;;;;;;;;;;;;;;;9.82;99.93;98143.78;5031502;28;20370;-78
2024/03/13 03:46:32;;;;;;;;;;;;;;;9.74;99.86;98152.31;5031305;28;20429;-79
2024/03/13 03:48:59;;;;;;;;;;;;;;;9.76;99.93;98152.59;5014922;28;19927;-79
2024/03/13 03:51:26;;;;;;;;;;;;;;;9.85;99.40;98154.69;5031044;28;19980;-79
2024/03/13 03:53:51;;;;;;;;;;;;;;;9.85;98.61;98160.22;5030969;28;19928;-77
2024/03/13 03:56:16;;;;;;;;;;;;;;;9.88;98.60;98161.31;5032477;28;20011;-80
2024/03/13 03:58:42;;;;;;;;;;;;;;;9.84;98.64;98155.91;5014948;28;20005;-78
2024/03/13 04:01:08;;;;;;;;;;;;;;;9.83;99.97;98159.88;5032590;28;19940;-79
2024/03/13 04:03:34;;;;;;;;;;;;;;;9.80;99.72;98156.03;5014568;28;20389;-78
2024/03/13 04:06:00;;;;;;;;;;;;;;;9.84;99.57;98166.16;5032005;28;19929;-78
2024/03/13 04:08:25;;;;;;;;;;;;;;;9.84;98.86;98168.94;5038831;28;20314;-79
2024/03/13 04:10:50;;;;;;;;;;;;;;;9.85;98.68;98157.47;5032294;28;19983;-77
2024/03/13 04:13:16;;;;;;;;;;;;;;;9.86;98.20;98170.03;5033588;28;19913;-77
2024/03/13 04:15:42;;;;;;;;;;;;;;;9.87;97.43;98166.06;5014715;28;19990;-79
2024/03/13 04:18:07;;;;;;;;;;;;;;;9.89;98.28;98165.59;5031002;28;19913;-79
2024/03/13 04:20:33;;;;;;;;;;;;;;;9.93;99.65;98171.78;5032684;28;19923;-78
2024/03/13 04:22:58;;;;;;;;;;;;;;;9.91;100.00;98165.94;5013833;28;19964;-79
2024/03/13 04:25:24;;;;;;;;;;;;;;;9.87;100.00;98168.84;5030770;28;19921;-78
2024/03/13 04:27:49;;;;;;;;;;;;;;;9.81;100.00;98165.09;5020138;28;19921;-79
2024/03/13 04:30:14;;;;;;;;;;;;;;;9.92;100.00;98171.03;5039696;28;20368;-78
2024/03/13 04:32:40;;;;;;;;;;;;;;;9.93;100.00;98163.53;5044079;28;19920;-78
2024/03/13 04:35:05;;;;;;;;;;;;;;;9.94;100.00;98168.59;5030698;28;20365;-78
2024/03/13 04:37:31;;;;;;;;;;;;;;;9.87;100.00;98166.06;5019550;28;19924;-79
2024/03/13 04:39:58;;;;;;;;;;;;;;;9.89;100.00;98168.38;5039520;28;19924;-78
2024/03/13 04:42:24;;;;;;;;;;;;;;;9.86;100.00;98163.75;5045067;28;19964;-79
2024/03/13 04:44:50;;;;;;;;;;;;;;;9.85;100.00;98167.72;5014492;28;19951;-78
2024/03/13 04:47:15;;;;;;;;;;;;;;;9.87;100.00;98174.34;5031702;28;19917;-78
2024/03/13 04:49:43;;;;;;;;;;;;;;;9.88;100.00;98169.59;5030247;28;19917;-78
2024/03/13 04:52:08;;;;;;;;;;;;;;;9.86;100.00;98172.03;5030112;28;20008;-77
2024/03/13 04:54:33;;;;;;;;;;;;;;;9.75;100.00;98167.63;5031865;28;20008;-78
2024/03/13 04:57:00;;;;;;;;;;;;;;;9.74;100.00;98171.59;5030308;28;19917;-79
2024/03/13 04:59:25;;;;;;;;;;;;;;;9.82;100.00;98175.66;5042825;28;20529;-78
2024/03/13 05:01:50;;;;;;;;;;;;;;;9.80;100.00;98169.84;5014616;28;20015;-79
2024/03/13 05:04:16;;;;;;;;;;;;;;;9.84;100.00;98174.44;5013680;28;19917;-79
2024/03/13 05:06:41;;;;;;;;;;;;;;;9.76;100.00;98168.41;5030261;28;19925;-78
2024/03/13 05:09:10;;;;;;;;;;;;;;;9.85;100.00;98173.25;5030099;28;20004;-78
2024/03/13 05:11:36;;;;;;;;;;;;;;;9.87;100.00;98181.84;5000409;28;19916;-78
2024/03/13 05:14:01;;;;;;;;;;;;;;;9.94;100.00;98181.63;5030092;28;20008;-78
2024/03/13 05:16:26;;;;;;;;;;;;;;;9.92;100.00;98184.06;5031436;28;19918;-78
2024/03/13 05:18:52;;;;;;;;;;;;;;;9.93;100.00;98188.34;5043114;28;20378;-78
2024/03/13 05:21:18;;;;;;;;;;;;;;;10.00;100.00;98188.13;5031421;28;19960;-77
2024/03/13 05:23:43;;;;;;;;;;;;;;;10.03;100.00;98182.47;5013693;28;19917;-77
2024/03/13 05:26:09;;;;;;;;;;;;;;;10.11;100.00;98185.78;5029837;28;19928;-77
2024/03/13 05:28:34;;;;;;;;;;;;;;;10.10;100.00;98184.22;5031287;28;19940;-79
2024/03/13 05:30:59;;;;;;;;;;;;;;;10.10;100.00;98196.03;5031478;28;20310;-79
2024/03/13 05:33:24;;;;;;;;;;;;;;;10.23;100.00;98195.28;5030298;28;19920;-77
2024/03/13 05:35:50;;;;;;;;;;;;;;;10.25;100.00;98196.34;5031221;28;20386;-80
2024/03/13 05:38:16;;;;;;;;;;;;;;;10.33;100.00;98205.94;5035173;28;19920;-79
2024/03/13 05:40:42;;;;;;;;;;;;;;;10.40;100.00;98202.94;5035523;28;19987;-79
2024/03/13 05:43:07;;;;;;;;;;;;;;;10.43;100.00;98207.56;5018125;28;20390;-78
2024/03/13 05:45:32;;;;;;;;;;;;;;;10.48;100.00;98212.53;5034540;28;19921;-80
2024/03/13 05:47:57;;;;;;;;;;;;;;;10.54;100.00;98215.50;5035558;28;19917;-81
2024/03/13 05:50:23;;;;;;;;;;;;;;;10.55;100.00;98217.78;5017533;28;19924;-80
2024/03/13 05:52:49;;;;;;;;;;;;;;;10.61;100.00;98227.03;5034193;28;19921;-78
2024/03/13 05:55:17;;;;;;;;;;;;;;;10.59;100.00;98218.44;5030820;28;19979;-79
2024/03/13 05:57:42;;;;;;;;;;;;;;;10.60;100.00;98230.28;5034531;28;19967;-79
2024/03/13 06:00:19;;;;;;;;;;;;;;;10.64;100.00;98228.16;5017142;28;19917;-80
2024/03/13 06:02:45;;;;;;;;;;;;;;;10.67;100.00;98234.78;5033783;28;20418;-79
2024/03/13 06:05:16;;;;;;;;;;;;;;;10.69;100.00;98238.63;5033910;28;19992;-78
2024/03/13 06:07:42;;;;;;;;;;;;;;;10.72;100.00;98242.50;5017457;28;19921;-80
2024/03/13 06:10:10;;;;;;;;;;;;;;;10.73;100.00;98249.56;5011844;28;19925;-82
2024/03/13 06:12:38;;;;;;;;;;;;;;;10.68;100.00;98258.41;5055586;28;19917;-79
2024/03/13 06:15:07;;;;;;;;;;;;;;;10.61;100.00;98260.19;5022706;28;19924;-79
2024/03/13 06:17:35;;;;;;;;;;;;;;;10.68;100.00;98259.19;5033615;28;19918;-80
2024/03/13 06:20:03;;;;;;;;;;;;;;;10.71;100.00;98268.56;5024761;28;19952;-82
2024/03/13 06:22:28;;;;;;;;;;;;;;;10.68;100.00;98266.69;5047041;28;19951;-80
2024/03/13 06:24:55;;;;;;;;;;;;;;;10.73;100.00;98275.19;5010722;28;19925;-81
2024/03/13 06:27:27;;;;;;;;;;;;;;;10.71;100.00;98268.56;5028756;28;19928;-79
2024/03/13 06:29:56;;;;;;;;;;;;;;;10.73;100.00;98275.19;5017505;28;20310;-80
2024/03/13 06:32:22;;;;;;;;;;;;;;;10.77;100.00;98275.06;5012471;28;19949;-80
2024/03/13 06:34:47;;;;;;;;;;;;;;;10.73;100.00;98274.44;5029408;28;19955;-79
2024/03/13 06:37:14;;;;;;;;;;;;;;;10.76;100.00;98276.28;5015377;28;19928;-81
2024/03/13 06:39:41;;;;;;;;;;;;;;;10.82;100.00;98277.25;5035432;28;19982;-81
2024/03/13 06:42:06;;;;;;;;;;;;;;;10.55;100.00;98275.03;5024176;28;19918;-80
2024/03/13 06:44:31;;;;;;;;;;;;;;;10.49;100.00;98272.06;5029762;28;20402;-82
2024/03/13 06:46:57;;;;;;;;;;;;;;;10.41;100.00;98276.28;5032861;28;19987;-80
2024/03/13 06:49:22;;;;;;;;;;;;;;;10.35;100.00;98272.56;5046563;28;19913;-80
2024/03/13 06:51:47;;;;;;;;;;;;;;;10.36;100.00;98276.88;5033123;28;19945;-81
2024/03/13 06:54:12;;;;;;;;;;;;;;;10.18;100.00;98285.72;5033225;28;19924;-82
2024/03/13 06:56:38;;;;;;;;;;;;;;;10.11;100.00;98285.91;5016614;28;19925;-80
2024/03/13 06:59:03;;;;;;;;;;;;;;;10.01;100.00;98289.78;5046332;28;19916;-80
2024/03/13 07:01:29;;;;;;;;;;;;;;;10.01;100.00;98294.53;5023921;28;19927;-79
2024/03/13 07:03:55;;;;;;;;;;;;;;;10.13;100.00;98305.56;5035708;28;20356;-79
2024/03/13 07:06:20;;;;;;;;;;;;;;;10.07;100.00;98298.28;5025629;28;19979;-79
2024/03/13 07:08:45;;;;;;;;;;;;;;;10.17;100.00;98297.97;5026384;28;19937;-80
2024/03/13 07:11:13;;;;;;;;;;;;;;;10.20;100.00;98296.31;5014291;28;19920;-79
2024/03/13 07:13:39;;;;;;;;;;;;;;;10.27;100.00;98290.56;5031725;28;19971;-81
2024/03/13 07:16:05;;;;;;;;;;;;;;;10.26;100.00;98300.06;5030577;28;19952;-79
2024/03/13 07:18:31;;;;;;;;;;;;;;;10.40;100.00;98305.13;5030091;28;19913;-82
2024/03/13 07:20:57;;;;;;;;;;;;;;;10.60;100.00;98302.88;5030488;28;19921;-80
2024/03/13 07:23:22;;;;;;;;;;;;;;;10.71;100.00;98301.72;5039890;28;19921;-81
2024/03/13 07:25:49;;;;;;;;;;;;;;;10.85;100.00;98306.78;5034999;28;19913;-80
2024/03/13 07:28:15;;;;;;;;;;;;;;;11.05;100.00;98298.16;5013649;28;19920;-81
2024/03/13 07:30:40;;;;;;;;;;;;;;;11.29;100.00;98310.31;5030479;28;19978;-79
2024/03/13 07:33:11;;;;;;;;;;;;;;;11.43;100.00;98305.06;5014947;28;19913;-80
2024/03/13 07:35:36;;;;;;;;;;;;;;;11.48;100.00;98303.69;5031625;28;20359;-82
2024/03/13 07:38:02;;;;;;;;;;;;;;;11.74;94.94;98309.88;5032897;28;19917;-82
2024/03/13 07:40:31;;;;;;;;;;;;;;;11.85;94.01;98301.16;5031745;28;20307;-81
2024/03/13 07:42:57;;;;;;;;;;;;;;;11.96;97.02;98307.81;5031735;28;19917;-80
2024/03/13 07:45:22;;;;;;;;;;;;;;;12.06;94.97;98306.59;5031664;28;19924;-79
2024/03/13 07:47:49;;;;;;;;;;;;;;;12.14;93.54;98310.66;5032914;28;19917;-80
2024/03/13 07:50:14;;;;;;;;;;;;;;;12.04;90.46;98300.78;5031822;28;20318;-79
2024/03/13 07:52:40;;;;;;;;;;;;;;;12.08;89.29;98303.41;5031116;28;19913;-80
2024/03/13 07:55:05;;;;;;;;;;;;;;;12.06;87.92;98303.06;5036761;28;19963;-80
2024/03/13 07:57:30;;;;;;;;;;;;;;;12.01;84.93;98296.13;5020742;28;19917;-80
2024/03/13 07:59:56;;;;;;;;;;;;;;;12.29;88.50;98299.78;5041875;28;19971;-80
2024/03/13 08:02:21;;;;;;;;;;;;;;;12.24;85.08;98301.13;5042259;28;19921;-79
2024/03/13 08:04:46;;;;;;;;;;;;;;;12.20;86.73;98302.50;5035339;28;19913;-79
2024/03/13 08:07:11;;;;;;;;;;;;;;;12.13;88.09;98303.56;5031476;28;19932;-80
2024/03/13 08:09:37;;;;;;;;;;;;;;;12.11;92.66;98292.19;5014500;28;20007;-79
2024/03/13 08:12:18;;;;;;;;;;;;;;;12.12;91.56;98295.72;5101643;27;20010;-79
2024/03/13 08:14:43;;;;;;;;;;;;;;;12.03;88.26;98282.63;5110958;28;19920;-81
2024/03/13 08:17:10;;;;;;;;;;;;;;;12.23;91.34;98294.06;5073098;28;19913;-79
2024/03/13 08:19:35;;;;;;;;;;;;;;;12.17;84.68;98300.66;5061278;28;19913;-80
2024/03/13 08:22:01;;;;;;;;;;;;;;;12.37;85.53;98300.25;5060305;28;19936;-81
2024/03/13 08:24:27;;;;;;;;;;;;;;;12.47;87.99;98291.50;5063583;28;19940;-80
2024/03/13 08:26:53;;;;;;;;;;;;;;;12.71;86.75;98297.25;5047524;28;19917;-80
2024/03/13 08:29:18;;;;;;;;;;;;;;;12.97;85.51;98298.47;5066201;28;20382;-80
2024/03/13 08:31:47;;;;;;;;;;;;;;;12.99;83.91;98296.00;5067908;28;19917;-79
2024/03/13 08:34:14;;;;;;;;;;;;;;;13.00;81.25;98291.25;5053241;28;19971;-79
2024/03/13 08:36:39;;;;;;;;;;;;;;;13.07;78.53;98295.72;5055316;28;20055;-80
2024/03/13 08:39:05;;;;;;;;;;;;;;;13.11;82.55;98296.31;5065796;28;20372;-81
2024/03/13 08:41:31;;;;;;;;;;;;;;;13.38;82.43;98293.56;5068000;28;20377;-80
2024/03/13 08:43:56;;;;;;;;;;;;;;;13.32;83.47;98301.72;5066850;28;19962;-79
2024/03/13 08:46:21;;;;;;;;;;;;;;;13.52;82.34;98297.66;5067976;28;19948;-79
2024/03/13 08:48:47;;;;;;;;;;;;;;;13.57;81.73;98292.25;5067697;28;19916;-79
2024/03/13 08:51:12;;;;;;;;;;;;;;;13.84;81.71;98297.75;5066668;28;19935;-81
2024/03/13 08:53:37;;;;;;;;;;;;;;;13.76;81.04;98298.53;5067975;28;19973;-82
2024/03/13 08:56:03;;;;;;;;;;;;;;;13.91;79.62;98301.44;5066893;28;19924;-80
2024/03/13 08:58:28;;;;;;;;;;;;;;;13.81;79.79;98298.66;5062050;28;19939;-79
2024/03/13 09:00:55;;;;;;;;;;;;;;;14.22;78.03;98299.13;5057969;28;19920;-84
2024/03/13 09:03:21;;;;;;;;;;;;;;;14.53;77.21;98309.94;5049754;28;20344;-85
2024/03/13 09:05:47;;;;;;;;;;;;;;;14.14;74.49;98298.69;5058887;28;19917;-82
2024/03/13 09:08:13;;;;;;;;;;;;;;;14.43;76.76;98300.91;5067277;28;19917;-82
2024/03/13 09:10:38;;;;;;;;;;;;;;;14.59;76.06;98297.69;5066741;28;19931;-78
2024/03/13 09:13:04;;;;;;;;;;;;;;;14.61;74.96;98300.00;5067533;28;19917;-83
2024/03/13 09:15:30;;;;;;;;;;;;;;;15.08;75.34;98285.28;5066085;28;19975;-85
2024/03/13 09:17:55;;;;;;;;;;;;;;;15.14;76.70;98283.38;5049177;28;19925;-81
2024/03/13 09:20:25;;;;;;;;;;;;;;;15.39;72.03;98285.63;5058694;28;20285;-81
2024/03/13 09:22:50;;;;;;;;;;;;;;;15.93;71.57;98286.28;5053091;28;19917;-82
2024/03/13 09:25:16;;;;;;;;;;;;;;;16.00;67.52;98279.56;5046159;28;20347;-81
2024/03/13 09:27:41;;;;;;;;;;;;;;;15.99;63.74;98284.34;5035737;28;20008;-84
2024/03/13 09:30:08;;;;;;;;;;;;;;;15.77;62.23;98289.59;5034920;28;19924;-83
2024/03/13 09:32:34;;;;;;;;;;;;;;;15.60;60.89;98296.91;5040357;28;19953;-81
2024/03/13 09:35:00;;;;;;;;;;;;;;;15.21;64.58;98285.00;5053915;28;20327;-83
2024/03/13 09:37:26;;;;;;;;;;;;;;;15.34;63.51;98286.28;5048481;28;19921;-82
2024/03/13 09:39:52;;;;;;;;;;;;;;;15.62;61.99;98286.03;5046140;28;19916;-81
2024/03/13 09:42:17;;;;;;;;;;;;;;;15.52;56.32;98284.56;5053635;28;19923;-82
2024/03/13 09:44:47;;;;;;;;;;;;;;;15.57;59.45;98281.13;5054840;28;19913;-81
2024/03/13 09:47:13;;;;;;;;;;;;;;;15.65;62.46;98285.84;5050384;28;19934;-81
2024/03/13 09:49:42;;;;;;;;;;;;;;;15.67;59.30;98285.38;5054251;28;19913;-81
2024/03/13 09:52:12;;;;;;;;;;;;;;;15.76;58.50;98283.25;5053420;28;19917;-83
2024/03/13 09:54:39;;;;;;;;;;;;;;;15.82;58.52;98270.16;5053447;28;19920;-80
2024/03/13 09:57:05;;;;;;;;;;;;;;;15.79;54.79;98271.13;5040687;28;19912;-81
2024/03/13 09:59:30;;;;;;;;;;;;;;;15.95;56.50;98278.22;5053613;28;19924;-83
2024/03/13 10:01:56;;;;;;;;;;;;;;;15.87;55.11;98266.72;5053991;28;19912;-83
2024/03/13 10:04:24;;;;;;;;;;;;;;;15.91;59.52;98274.88;5047388;28;19977;-82
2024/03/13 10:06:56;;;;;;;;;;;;;;;15.85;56.21;98274.03;5048221;28;20102;-81
2024/03/13 10:09:23;;;;;;;;;;;;;;;15.82;57.68;98264.59;5053453;28;20106;-82
2024/03/13 10:11:51;;;;;;;;;;;;;;;15.77;57.03;98272.88;5043213;28;19929;-81
2024/03/13 10:14:17;;;;;;;;;;;;;;;15.42;54.11;98259.63;5053716;28;19919;-84
2024/03/13 10:16:43;;;;;;;;;;;;;;;15.30;55.28;98263.44;5051086;28;19916;-82
2024/03/13 10:19:12;;;;;;;;;;;;;;;14.94;56.32;98261.78;5027645;28;19956;-82
2024/03/13 10:21:40;;;;;;;;;;;;;;;14.74;57.93;98263.63;5053148;28;19967;-80
2024/03/13 10:24:06;;;;;;;;;;;;;;;14.95;60.33;98254.16;5052603;28;19967;-81
2024/03/13 10:26:32;;;;;;;;;;;;;;;14.93;59.88;98260.22;5052699;28;19927;-80
2024/03/13 10:28:57;;;;;;;;;;;;;;;14.95;58.08;98254.16;5053113;28;19916;-82
2024/03/13 10:31:24;;;;;;;;;;;;;;;15.07;58.82;98253.13;5053224;28;19924;-81
2024/03/13 10:33:50;;;;;;;;;;;;;;;14.97;56.31;98257.25;5051819;28;19974;-86
2024/03/13 10:36:17;;;;;;;;;;;;;;;14.81;56.83;98254.91;5046995;28;19929;-81
2024/03/13 10:38:43;;;;;;;;;;;;;;;14.67;56.02;98261.97;5031230;28;19921;-80
2024/03/13 10:41:11;;;;;;;;;;;;;;;14.53;57.67;98246.75;5040585;28;19917;-81
2024/03/13 10:43:36;;;;;;;;;;;;;;;14.43;55.14;98253.63;5037438;28;19948;-81
2024/03/13 10:46:02;;;;;;;;;;;;;;;14.66;58.11;98247.28;5052184;28;19964;-79
2024/03/13 10:48:29;;;;;;;;;;;;;;;14.65;54.28;98240.19;5051858;28;20451;-79
2024/03/13 10:50:56;;;;;;;;;;;;;;;14.84;58.15;98237.25;5040806;28;19924;-80
2024/03/13 10:53:21;;;;;;;;;;;;;;;15.07;60.21;98236.44;5049263;28;19916;-81
2024/03/13 10:55:47;;;;;;;;;;;;;;;15.15;59.29;98234.81;5051539;28;19923;-82
2024/03/13 10:58:20;;;;;;;;;;;;;;;15.24;56.27;98228.41;5051753;28;19917;-81
2024/03/13 11:00:46;;;;;;;;;;;;;;;15.07;52.92;98236.44;5052491;28;20406;-81
2024/03/13 11:03:12;;;;;;;;;;;;;;;14.82;52.20;98225.88;5051478;28;19923;-79
2024/03/13 11:05:37;;;;;;;;;;;;;;;14.90;56.91;98225.00;5051826;28;19916;-79
2024/03/13 11:08:03;;;;;;;;;;;;;;;15.18;55.75;98221.97;5051278;28;19928;-80
2024/03/13 11:10:29;;;;;;;;;;;;;;;15.11;54.80;98228.69;5051322;28;20304;-83
2024/03/13 11:12:56;;;;;;;;;;;;;;;15.07;52.15;98223.28;5036924;28;20433;-79
2024/03/13 11:15:29;;;;;;;;;;;;;;;15.22;52.16;98220.53;5032289;28;19917;-80
2024/03/13 11:18:00;;;;;;;;;;;;;;;15.37;53.95;98212.94;5040204;28;20015;-79
2024/03/13 11:20:30;;;;;;;;;;;;;;;15.33;53.31;98212.38;5032711;28;19967;-80
2024/03/13 11:23:03;;;;;;;;;;;;;;;15.42;53.19;98214.31;5029732;28;20388;-80
2024/03/13 11:25:30;;;;;;;;;;;;;;;15.47;52.27;98205.28;5037233;28;19956;-80
2024/03/13 11:27:56;;;;;;;;;;;;;;;15.46;52.57;98201.72;5031253;28;19928;-81
2024/03/13 11:30:22;;;;;;;;;;;;;;;15.62;52.61;98208.06;5046785;28;19923;-80
2024/03/13 11:32:50;;;;;;;;;;;;;;;15.64;52.41;98197.22;5043231;28;20015;-80
2024/03/13 11:35:16;;;;;;;;;;;;;;;15.65;52.67;98196.72;5046165;28;19996;-79
2024/03/13 11:37:42;;;;;;;;;;;;;;;15.73;50.39;98197.09;5042626;28;19913;-80
2024/03/13 11:40:10;;;;;;;;;;;;;;;15.95;48.24;98188.31;5050411;28;19924;-80
2024/03/13 11:42:36;;;;;;;;;;;;;;;15.99;49.44;98189.63;5044190;28;20392;-82
2024/03/13 11:45:29;;;;;;;;;;;;;;;15.80;45.45;98191.13;5034817;28;19957;-80
2024/03/13 11:48:00;;;;;;;;;;;;;;;15.94;51.50;98186.75;5033132;28;19925;-80
2024/03/13 11:50:26;;;;;;;;;;;;;;;15.96;49.68;98190.59;5030889;28;20354;-83
2024/03/13 11:52:54;;;;;;;;;;;;;;;16.04;49.54;98185.38;5032032;28;19917;-83
2024/03/13 11:55:29;;;;;;;;;;;;;;;15.78;47.15;98180.47;5036490;28;19954;-83
2024/03/13 11:58:17;;;;;;;;;;;;;;;15.69;47.75;98175.00;5039543;28;19925;-80
2024/03/13 12:00:43;;;;;;;;;;;;;;;15.47;47.82;98177.44;5044149;28;19917;-80
2024/03/13 12:03:10;;;;;;;;;;;;;;;15.65;48.76;98176.47;5031900;28;19917;-80
2024/03/13 12:05:36;;;;;;;;;;;;;;;15.76;49.00;98184.97;5036778;28;20332;-81
2024/03/13 12:08:02;;;;;;;;;;;;;;;15.47;47.36;98186.56;5030849;28;19913;-81
2024/03/13 12:10:28;;;;;;;;;;;;;;;15.56;47.29;98179.34;5031562;28;19948;-82
2024/03/13 12:12:54;;;;;;;;;;;;;;;15.45;48.63;98172.34;5027201;28;19979;-82
2024/03/13 12:15:21;;;;;;;;;;;;;;;15.35;47.85;98175.72;5029767;28;20286;-80
2024/03/13 12:17:50;;;;;;;;;;;;;;;15.12;46.55;98165.47;5033508;28;20004;-80
2024/03/13 12:20:18;;;;;;;;;;;;;;;15.10;48.57;98165.94;5043990;28;19959;-80
2024/03/13 12:22:46;;;;;;;;;;;;;;;15.26;49.95;98159.09;5047448;28;19925;-79
2024/03/13 12:25:12;;;;;;;;;;;;;;;15.39;47.07;98160.34;5033598;28;20416;-80
2024/03/13 12:27:47;;;;;;;;;;;;;;;15.66;47.62;98161.28;5018369;28;19925;-80
2024/03/13 12:30:14;;;;;;;;;;;;;;;15.78;44.53;98157.41;5044367;28;19917;-81
2024/03/13 12:32:39;;;;;;;;;;;;;;;15.74;45.71;98162.41;5046194;28;19929;-79
2024/03/13 12:35:06;;;;;;;;;;;;;;;15.95;45.57;98160.44;5019850;28;19925;-81
2024/03/13 12:37:31;;;;;;;;;;;;;;;15.90;45.13;98156.31;5040165;28;19924;-80
2024/03/13 12:39:58;;;;;;;;;;;;;;;15.96;46.34;98168.31;5034259;28;20011;-81
2024/03/13 12:42:25;;;;;;;;;;;;;;;16.06;47.00;98153.00;5050783;28;20375;-82
2024/03/13 12:44:50;;;;;;;;;;;;;;;16.18;45.75;98140.72;5050716;28;19921;-81
2024/03/13 12:47:16;;;;;;;;;;;;;;;16.19;44.60;98149.88;5049992;28;20347;-80
2024/03/13 12:49:42;;;;;;;;;;;;;;;16.22;46.89;98169.16;5036810;28;19913;-80
2024/03/13 12:52:09;;;;;;;;;;;;;;;16.40;48.04;98156.94;5048759;28;20444;-80
2024/03/13 12:54:35;;;;;;;;;;;;;;;16.24;45.76;98149.16;5048427;28;20297;-82
2024/03/13 12:57:03;;;;;;;;;;;;;;;15.90;45.07;98161.91;5048632;28;19912;-82
2024/03/13 12:59:28;;;;;;;;;;;;;;;16.06;48.66;98164.13;5052614;28;20015;-82
2024/03/13 13:01:53;;;;;;;;;;;;;;;15.78;46.11;98171.34;5051967;28;20012;-82